Time;durP1;ratioP1;P1;durP2;ratioP2;P2;SDS_P1;SDS_P2;PMS_P1;PMS_P2;Temp;Humidity;BMP_temperature;BMP_pressure;BME280_temperature;BME280_humidity;BME280_pressure;Samples;Min_cycle;Max_cycle;Signal;HPM_P1;HPM_P2
2023/04/26 00:01:57;;;;;;;69.17;11.83;;;;;;;;;;5074106;28;20988;-70
2023/04/26 00:04:24;;;;;;;70.87;13.17;;;;;;;;;;5074091;28;20487;-70
2023/04/26 00:06:51;;;;;;;70.87;10.60;;;;;;;;;;5074282;28;20482;-70
2023/04/26 00:09:19;;;;;;;70.97;11.53;;;;;;;;;;5073795;28;20475;-69
2023/04/26 00:11:47;;;;;;;69.07;10.60;;;;;;;;;;5073933;28;20497;-72
2023/04/26 00:14:14;;;;;;;66.27;9.73;;;;;;;;;;5073960;28;20454;-71
2023/04/26 00:16:41;;;;;;;73.60;11.67;;;;;;;;;;5073912;28;20458;-70
2023/04/26 00:19:10;;;;;;;70.43;10.50;;;;;;;;;;5073400;28;20475;-70
2023/04/26 00:21:37;;;;;;;67.57;9.90;;;;;;;;;;5073930;28;20453;-70
2023/04/26 00:24:05;;;;;;;66.73;11.33;;;;;;;;;;5073730;28;20637;-70
2023/04/26 00:26:33;;;;;;;66.97;10.97;;;;;;;;;;5073576;28;20448;-70
2023/04/26 00:29:02;;;;;;;71.70;10.40;;;;;;;;;;5073277;28;20482;-70
2023/04/26 00:31:29;;;;;;;67.20;10.00;;;;;;;;;;5073553;28;20818;-70
2023/04/26 00:33:56;;;;;;;67.10;10.80;;;;;;;;;;5073494;28;20973;-70
2023/04/26 00:36:23;;;;;;;68.67;11.40;;;;;;;;;;5073746;28;20447;-70
2023/04/26 00:38:50;;;;;;;68.53;11.03;;;;;;;;;;5073166;28;20838;-70
2023/04/26 00:41:17;;;;;;;67.77;10.43;;;;;;;;;;5073518;28;20451;-70
2023/04/26 00:43:45;;;;;;;67.07;11.30;;;;;;;;;;5073499;28;20447;-71
2023/04/26 00:46:13;;;;;;;66.73;10.43;;;;;;;;;;5073357;28;21038;-70
2023/04/26 00:48:40;;;;;;;66.20;10.93;;;;;;;;;;5073146;28;20984;-70
2023/04/26 00:51:07;;;;;;;67.57;11.47;;;;;;;;;;5073548;28;20450;-70
2023/04/26 00:53:35;;;;;;;66.73;10.77;;;;;;;;;;5073245;28;20450;-70
2023/04/26 00:56:02;;;;;;;69.60;11.03;;;;;;;;;;5073609;28;20481;-70
2023/04/26 00:58:30;;;;;;;68.10;10.50;;;;;;;;;;5072835;28;20447;-70
2023/04/26 01:00:57;;;;;;;68.20;10.93;;;;;;;;;;5072877;28;20928;-70
2023/04/26 01:03:26;;;;;;;69.40;11.17;;;;;;;;;;5072910;28;20447;-70
2023/04/26 01:05:54;;;;;;;65.80;10.90;;;;;;;;;;5073017;28;20454;-70
2023/04/26 01:08:21;;;;;;;66.27;10.30;;;;;;;;;;5071857;28;20484;-70
2023/04/26 01:10:48;;;;;;;68.87;10.83;;;;;;;;;;5072538;28;20737;-70
2023/04/26 01:13:16;;;;;;;65.00;9.90;;;;;;;;;;5072739;28;20474;-71
2023/04/26 01:15:44;;;;;;;68.33;9.73;;;;;;;;;;5072931;28;20458;-70
2023/04/26 01:18:12;;;;;;;69.87;10.77;;;;;;;;;;5070759;28;20439;-70
2023/04/26 01:20:41;;;;;;;67.47;10.97;;;;;;;;;;5072378;28;20476;-71
2023/04/26 01:23:10;;;;;;;68.53;12.25;;;;;;;;;;5072518;28;20451;-70
2023/04/26 01:25:37;;;;;;;71.93;11.37;;;;;;;;;;5072600;28;20279;-70
2023/04/26 01:28:04;;;;;;;67.17;10.77;;;;;;;;;;5072429;28;20483;-71
2023/04/26 01:30:31;;;;;;;67.10;10.33;;;;;;;;;;5072176;28;20521;-70
2023/04/26 01:32:59;;;;;;;67.00;11.30;;;;;;;;;;5072438;28;20748;-71
2023/04/26 01:35:26;;;;;;;67.97;10.97;;;;;;;;;;5072286;28;20455;-70
2023/04/26 01:37:53;;;;;;;69.50;11.80;;;;;;;;;;5072467;28;20474;-70
2023/04/26 01:40:21;;;;;;;68.00;10.45;;;;;;;;;;5072134;28;20471;-68
2023/04/26 01:42:48;;;;;;;66.68;10.75;;;;;;;;;;5072367;28;20648;-71
2023/04/26 01:45:16;;;;;;;73.30;11.73;;;;;;;;;;5072291;28;20215;-69
2023/04/26 01:47:43;;;;;;;68.83;10.23;;;;;;;;;;5072144;28;20925;-69
2023/04/26 01:50:10;;;;;;;68.40;11.07;;;;;;;;;;5071658;28;20475;-69
2023/04/26 01:52:38;;;;;;;69.78;11.35;;;;;;;;;;5072233;28;20439;-69
2023/04/26 01:55:06;;;;;;;69.47;10.90;;;;;;;;;;5072131;28;20205;-69
2023/04/26 01:57:34;;;;;;;71.30;11.90;;;;;;;;;;5072120;28;20986;-69
2023/04/26 02:00:02;;;;;;;71.90;11.90;;;;;;;;;;5071843;28;20260;-69
2023/04/26 02:02:29;;;;;;;68.68;11.18;;;;;;;;;;5071887;28;20451;-69
2023/04/26 02:04:56;;;;;;;73.67;11.63;;;;;;;;;;5072188;28;20564;-68
2023/04/26 02:07:23;;;;;;;69.00;11.50;;;;;;;;;;5071955;28;20479;-69
2023/04/26 02:09:50;;;;;;;71.63;10.83;;;;;;;;;;5071407;28;20474;-68
2023/04/26 02:12:17;;;;;;;69.15;12.23;;;;;;;;;;5072183;28;20538;-69
2023/04/26 02:14:46;;;;;;;69.45;11.38;;;;;;;;;;5071900;28;20589;-68
2023/04/26 02:17:13;;;;;;;69.23;12.13;;;;;;;;;;5071740;28;20207;-69
2023/04/26 02:19:40;;;;;;;69.33;11.03;;;;;;;;;;5071181;28;20477;-69
2023/04/26 02:22:07;;;;;;;72.13;10.90;;;;;;;;;;5071838;28;20458;-69
2023/04/26 02:24:35;;;;;;;72.53;11.93;;;;;;;;;;5071711;28;20466;-69
2023/04/26 02:27:03;;;;;;;68.95;12.30;;;;;;;;;;5071536;28;20509;-70
2023/04/26 02:29:31;;;;;;;68.30;10.88;;;;;;;;;;5071139;28;20697;-69
2023/04/26 02:31:59;;;;;;;67.87;11.70;;;;;;;;;;5071895;28;20212;-69
2023/04/26 02:34:26;;;;;;;71.68;11.90;;;;;;;;;;5071561;28;20459;-69
2023/04/26 02:36:54;;;;;;;69.47;12.47;;;;;;;;;;5071717;28;20212;-69
2023/04/26 02:39:21;;;;;;;70.37;11.50;;;;;;;;;;5071587;28;20884;-69
2023/04/26 02:41:48;;;;;;;67.10;10.70;;;;;;;;;;5071616;28;20453;-69
2023/04/26 02:44:15;;;;;;;73.00;13.25;;;;;;;;;;5071410;28;20212;-69
2023/04/26 02:46:42;;;;;;;69.87;11.80;;;;;;;;;;5071774;28;20661;-69
2023/04/26 02:49:11;;;;;;;68.40;11.85;;;;;;;;;;5071176;28;20491;-69
2023/04/26 02:51:38;;;;;;;72.10;11.57;;;;;;;;;;5071519;28;20208;-69
2023/04/26 02:54:06;;;;;;;69.05;11.98;;;;;;;;;;5071512;28;20462;-69
2023/04/26 02:56:33;;;;;;;70.20;12.50;;;;;;;;;;5071332;28;20209;-70
2023/04/26 02:59:00;;;;;;;68.05;12.18;;;;;;;;;;5071241;28;20469;-69
2023/04/26 03:01:27;;;;;;;73.50;13.60;;;;;;;;;;5071584;28;20205;-68
2023/04/26 03:03:54;;;;;;;69.82;12.65;;;;;;;;;;5071469;28;20451;-69
2023/04/26 03:06:23;;;;;;;70.10;12.00;;;;;;;;;;5071460;28;20205;-68
2023/04/26 03:08:50;;;;;;;71.78;12.50;;;;;;;;;;5070864;28;20491;-69
2023/04/26 03:11:17;;;;;;;72.22;12.60;;;;;;;;;;5071206;28;20209;-70
2023/04/26 03:13:44;;;;;;;70.33;12.30;;;;;;;;;;5071230;28;20670;-69
2023/04/26 03:16:11;;;;;;;72.57;14.03;;;;;;;;;;5071399;28;20448;-69
2023/04/26 03:18:38;;;;;;;72.18;12.60;;;;;;;;;;5070945;28;20443;-68
2023/04/26 03:21:05;;;;;;;68.75;11.85;;;;;;;;;;5071140;28;20703;-69
2023/04/26 03:23:34;;;;;;;68.85;11.98;;;;;;;;;;5071128;28;20201;-69
2023/04/26 03:26:01;;;;;;;68.35;11.68;;;;;;;;;;5071178;28;20209;-69
2023/04/26 03:28:28;;;;;;;68.93;12.40;;;;;;;;;;5070865;28;20232;-69
2023/04/26 03:30:55;;;;;;;68.00;11.30;;;;;;;;;;5071107;28;20588;-69
2023/04/26 03:33:22;;;;;;;68.95;11.82;;;;;;;;;;5074391;28;20453;-69
2023/04/26 03:35:50;;;;;;;69.30;12.10;;;;;;;;;;5074651;28;20255;-69
2023/04/26 03:38:17;;;;;;;71.38;11.85;;;;;;;;;;5074486;28;20443;-69
2023/04/26 03:40:45;;;;;;;71.05;12.38;;;;;;;;;;5074247;28;20225;-68
2023/04/26 03:43:13;;;;;;;71.15;13.68;;;;;;;;;;5074681;28;20206;-69
2023/04/26 03:45:40;;;;;;;68.03;12.05;;;;;;;;;;5074657;28;20202;-69
2023/04/26 03:48:07;;;;;;;70.75;12.60;;;;;;;;;;5074250;28;20712;-70
2023/04/26 03:50:35;;;;;;;69.80;12.45;;;;;;;;;;5074089;28;20228;-69
2023/04/26 03:53:02;;;;;;;69.28;10.93;;;;;;;;;;5074364;28;20639;-69
2023/04/26 03:55:29;;;;;;;69.57;11.55;;;;;;;;;;5074573;28;20211;-68
2023/04/26 03:57:57;;;;;;;74.15;12.35;;;;;;;;;;5074441;28;20205;-69
2023/04/26 04:00:25;;;;;;;70.43;12.15;;;;;;;;;;5074011;28;20225;-69
2023/04/26 04:02:52;;;;;;;72.03;12.90;;;;;;;;;;5074233;28;20205;-69
2023/04/26 04:05:19;;;;;;;67.30;12.05;;;;;;;;;;5074114;28;20232;-69
2023/04/26 04:07:46;;;;;;;70.38;12.15;;;;;;;;;;5074224;28;20213;-69
2023/04/26 04:10:15;;;;;;;72.90;11.00;;;;;;;;;;5073843;28;20225;-69
2023/04/26 04:12:42;;;;;;;68.32;12.20;;;;;;;;;;5074403;28;20274;-69
2023/04/26 04:15:11;;;;;;;70.13;11.27;;;;;;;;;;5073987;28;20305;-69
2023/04/26 04:17:38;;;;;;;69.47;10.85;;;;;;;;;;5073962;28;20209;-69
2023/04/26 04:20:06;;;;;;;70.32;12.60;;;;;;;;;;5073366;28;20227;-69
2023/04/26 04:22:33;;;;;;;68.78;11.35;;;;;;;;;;5073945;28;20209;-69
2023/04/26 04:25:00;;;;;;;73.85;12.25;;;;;;;;;;5073750;28;20216;-69
2023/04/26 04:27:27;;;;;;;69.82;12.50;;;;;;;;;;5073889;28;20411;-69
2023/04/26 04:29:54;;;;;;;69.55;12.90;;;;;;;;;;5073226;28;20701;-69
2023/04/26 04:32:23;;;;;;;73.55;12.35;;;;;;;;;;5073631;28;20300;-69
2023/04/26 04:34:52;;;;;;;68.95;12.15;;;;;;;;;;5073431;28;20240;-69
2023/04/26 04:37:20;;;;;;;67.72;12.40;;;;;;;;;;5073730;28;20628;-69
2023/04/26 04:39:47;;;;;;;69.43;12.27;;;;;;;;;;5073283;28;20225;-69
2023/04/26 04:42:14;;;;;;;70.97;12.07;;;;;;;;;;5073498;28;20201;-68
2023/04/26 04:44:42;;;;;;;72.30;12.70;;;;;;;;;;5073367;28;20200;-69
2023/04/26 04:47:09;;;;;;;73.70;12.32;;;;;;;;;;5073229;28;20205;-68
2023/04/26 04:49:37;;;;;;;68.32;11.77;;;;;;;;;;5073015;28;20229;-70
2023/04/26 04:52:05;;;;;;;70.72;12.95;;;;;;;;;;5073430;28;20209;-69
2023/04/26 04:54:33;;;;;;;70.90;11.70;;;;;;;;;;5073174;28;20212;-69
2023/04/26 04:57:01;;;;;;;66.60;11.20;;;;;;;;;;5073261;28;20266;-69
2023/04/26 04:59:28;;;;;;;70.03;12.45;;;;;;;;;;5072573;28;20316;-69
2023/04/26 05:01:55;;;;;;;72.45;12.98;;;;;;;;;;5073232;28;20209;-70
2023/04/26 05:04:23;;;;;;;71.72;12.18;;;;;;;;;;5072998;28;20201;-69
2023/04/26 05:06:52;;;;;;;76.30;13.30;;;;;;;;;;5073269;28;20205;-68
2023/04/26 05:09:19;;;;;;;70.72;12.57;;;;;;;;;;5072475;28;20232;-71
2023/04/26 05:11:46;;;;;;;72.70;13.32;;;;;;;;;;5072869;28;20216;-68
2023/04/26 05:14:13;;;;;;;71.72;13.50;;;;;;;;;;5072729;28;20218;-68
2023/04/26 05:16:40;;;;;;;69.20;11.95;;;;;;;;;;5072983;28;20209;-69
2023/04/26 05:19:07;;;;;;;68.38;11.80;;;;;;;;;;5072601;28;20228;-68
2023/04/26 05:21:34;;;;;;;70.63;12.60;;;;;;;;;;5072783;28;20213;-69
2023/04/26 05:24:03;;;;;;;70.30;12.55;;;;;;;;;;5072449;28;20220;-71
2023/04/26 05:26:30;;;;;;;77.07;13.30;;;;;;;;;;5072584;28;20207;-69
2023/04/26 05:28:57;;;;;;;73.45;13.25;;;;;;;;;;5071977;28;20622;-68
2023/04/26 05:31:24;;;;;;;80.45;14.45;;;;;;;;;;5072395;28;20236;-69
2023/04/26 05:33:52;;;;;;;72.97;12.93;;;;;;;;;;5072428;28;20209;-68
2023/04/26 05:36:20;;;;;;;72.65;15.18;;;;;;;;;;5072490;28;20558;-68
2023/04/26 05:38:47;;;;;;;72.70;13.40;;;;;;;;;;5072064;28;20201;-69
2023/04/26 05:41:15;;;;;;;74.28;13.80;;;;;;;;;;5072182;28;20501;-69
2023/04/26 05:43:42;;;;;;;73.25;14.27;;;;;;;;;;5072532;28;20208;-68
2023/04/26 05:46:10;;;;;;;74.18;14.48;;;;;;;;;;5072404;28;20223;-69
2023/04/26 05:48:37;;;;;;;72.60;14.35;;;;;;;;;;5071748;28;20229;-69
2023/04/26 05:51:05;;;;;;;74.50;14.60;;;;;;;;;;5072183;28;20205;-68
2023/04/26 05:53:32;;;;;;;71.10;13.88;;;;;;;;;;5072074;28;20451;-69
2023/04/26 05:55:59;;;;;;;71.47;13.25;;;;;;;;;;5071776;28;20254;-69
2023/04/26 05:58:28;;;;;;;71.72;14.52;;;;;;;;;;5072565;28;20209;-70
2023/04/26 06:00:55;;;;;;;77.90;14.15;;;;;;;;;;5072022;28;20225;-69
2023/04/26 06:03:23;;;;;;;71.00;13.52;;;;;;;;;;5072095;28;20205;-69
2023/04/26 06:05:50;;;;;;;72.13;13.05;;;;;;;;;;5071984;28;20244;-69
2023/04/26 06:08:17;;;;;;;71.87;13.10;;;;;;;;;;5071722;28;20641;-69
2023/04/26 06:10:45;;;;;;;72.40;13.03;;;;;;;;;;5071540;28;20477;-70
2023/04/26 06:13:12;;;;;;;72.40;13.60;;;;;;;;;;5072053;28;20456;-69
2023/04/26 06:15:41;;;;;;;71.87;14.67;;;;;;;;;;5071812;28;20204;-69
2023/04/26 06:18:08;;;;;;;74.32;14.50;;;;;;;;;;5071774;28;20448;-71
2023/04/26 06:20:35;;;;;;;73.90;14.27;;;;;;;;;;5071464;28;20686;-69
2023/04/26 06:23:03;;;;;;;72.53;14.50;;;;;;;;;;5071729;28;20860;-70
2023/04/26 06:25:30;;;;;;;77.37;16.90;;;;;;;;;;5071631;28;20814;-71
2023/04/26 06:27:58;;;;;;;86.10;17.70;;;;;;;;;;5071612;28;20479;-72
2023/04/26 06:30:25;;;;;;;76.53;16.33;;;;;;;;;;5071440;28;20502;-69
2023/04/26 06:32:54;;;;;;;75.67;16.57;;;;;;;;;;5071652;28;20454;-71
2023/04/26 06:35:22;;;;;;;75.93;15.15;;;;;;;;;;5071679;28;20596;-70
2023/04/26 06:37:49;;;;;;;72.33;15.13;;;;;;;;;;5071620;28;20209;-68
2023/04/26 06:40:16;;;;;;;78.83;16.20;;;;;;;;;;5071379;28;20839;-70
2023/04/26 06:42:43;;;;;;;73.13;15.40;;;;;;;;;;5071554;28;20944;-69
2023/04/26 06:45:11;;;;;;;69.80;14.67;;;;;;;;;;5071616;28;20443;-70
2023/04/26 06:47:38;;;;;;;76.10;15.30;;;;;;;;;;5071402;28;20965;-70
2023/04/26 06:50:07;;;;;;;72.23;13.80;;;;;;;;;;5070884;28;20497;-70
2023/04/26 06:52:34;;;;;;;73.10;13.20;;;;;;;;;;5071666;28;20453;-70
2023/04/26 06:55:02;;;;;;;66.87;11.97;;;;;;;;;;5071571;28;20819;-69
2023/04/26 06:57:29;;;;;;;69.63;13.00;;;;;;;;;;5071556;28;20847;-70
2023/04/26 06:59:57;;;;;;;75.87;13.07;;;;;;;;;;5070993;28;20464;-70
2023/04/26 07:02:24;;;;;;;69.07;11.70;;;;;;;;;;5071300;28;20505;-69
2023/04/26 07:04:51;;;;;;;65.90;11.10;;;;;;;;;;5071473;28;20455;-70
2023/04/26 07:07:19;;;;;;;72.80;11.93;;;;;;;;;;5073249;28;20454;-70
2023/04/26 07:09:46;;;;;;;68.40;12.57;;;;;;;;;;5074939;28;20491;-69
2023/04/26 07:12:14;;;;;;;68.07;9.53;;;;;;;;;;5075202;28;20442;-70
2023/04/26 07:14:42;;;;;;;65.07;9.63;;;;;;;;;;5075042;28;20451;-70
2023/04/26 07:17:09;;;;;;;68.03;11.20;;;;;;;;;;5074899;28;20455;-69
2023/04/26 07:19:36;;;;;;;65.90;9.90;;;;;;;;;;5074775;28;20574;-70
2023/04/26 07:22:03;;;;;;;67.00;10.80;;;;;;;;;;5075760;28;20969;-71
2023/04/26 07:24:32;;;;;;;68.60;9.70;;;;;;;;;;5074887;28;20513;-70
2023/04/26 07:26:59;;;;;;;63.20;8.37;;;;;;;;;;5074963;28;20451;-70
2023/04/26 07:29:27;;;;;;;66.10;8.90;;;;;;;;;;5075050;28;20490;-70
2023/04/26 07:31:55;;;;;;;65.90;7.60;;;;;;;;;;5074799;28;20447;-70
2023/04/26 07:34:23;;;;;;;67.60;9.20;;;;;;;;;;5075266;28;20458;-70
2023/04/26 07:36:50;;;;;;;66.93;8.63;;;;;;;;;;5074951;28;20965;-70
2023/04/26 07:39:17;;;;;;;66.47;10.27;;;;;;;;;;5074340;28;20455;-70
2023/04/26 07:41:46;;;;;;;66.17;9.07;;;;;;;;;;5074742;28;20966;-70
2023/04/26 07:44:13;;;;;;;68.27;9.40;;;;;;;;;;5074634;28;20444;-69
2023/04/26 07:46:40;;;;;;;66.10;8.37;;;;;;;;;;5074971;28;20824;-70
2023/04/26 07:49:07;;;;;;;64.87;8.60;;;;;;;;;;5074294;28;20473;-70
2023/04/26 07:51:35;;;;;;;63.30;7.83;;;;;;;;;;5074638;28;20466;-70
2023/04/26 07:54:02;;;;;;;66.40;8.40;;;;;;;;;;5074590;28;20512;-70
2023/04/26 07:56:29;;;;;;;64.83;8.30;;;;;;;;;;5074627;28;20450;-70
2023/04/26 07:58:58;;;;;;;63.70;7.97;;;;;;;;;;5073973;28;21009;-70
2023/04/26 08:01:25;;;;;;;66.80;8.47;;;;;;;;;;5074674;28;20459;-70
2023/04/26 08:03:53;;;;;;;63.80;7.30;;;;;;;;;;5074323;28;20525;-70
2023/04/26 08:06:20;;;;;;;68.43;8.03;;;;;;;;;;5074665;28;20501;-70
2023/04/26 08:08:49;;;;;;;63.90;7.00;;;;;;;;;;5073841;28;20479;-70
2023/04/26 08:11:17;;;;;;;63.87;7.33;;;;;;;;;;5074188;28;20483;-70
2023/04/26 08:13:44;;;;;;;64.97;7.33;;;;;;;;;;5074507;28;20448;-71
2023/04/26 08:16:12;;;;;;;62.37;7.90;;;;;;;;;;5074319;28;20936;-70
2023/04/26 08:18:39;;;;;;;64.83;7.07;;;;;;;;;;5073291;28;20954;-71
2023/04/26 08:21:06;;;;;;;63.03;6.70;;;;;;;;;;5074027;28;20450;-70
2023/04/26 08:23:35;;;;;;;62.40;6.70;;;;;;;;;;5073913;28;20452;-71
2023/04/26 08:26:02;;;;;;;66.43;7.73;;;;;;;;;;5073795;28;20951;-71
2023/04/26 08:28:29;;;;;;;64.57;6.53;;;;;;;;;;5073845;28;20448;-69
2023/04/26 08:30:57;;;;;;;64.73;6.90;;;;;;;;;;5073874;28;20848;-71
2023/04/26 08:33:25;;;;;;;62.83;6.43;;;;;;;;;;5073987;28;20470;-71
2023/04/26 08:35:52;;;;;;;68.17;7.70;;;;;;;;;;5073774;28;20443;-70
2023/04/26 08:38:21;;;;;;;66.50;7.43;;;;;;;;;;5073497;28;20819;-70
2023/04/26 08:40:48;;;;;;;62.30;6.90;;;;;;;;;;5073610;28;20506;-71
2023/04/26 08:43:16;;;;;;;62.23;7.30;;;;;;;;;;5073610;28;20966;-71
2023/04/26 08:45:45;;;;;;;63.80;7.70;;;;;;;;;;5073610;28;20444;-71
2023/04/26 08:48:14;;;;;;;67.53;7.20;;;;;;;;;;5073497;28;20455;-71
2023/04/26 08:50:44;;;;;;;63.20;7.50;;;;;;;;;;5073253;28;20537;-71
2023/04/26 08:53:15;;;;;;;64.60;7.33;;;;;;;;;;5073578;28;20451;-70
2023/04/26 08:55:42;;;;;;;62.43;6.10;;;;;;;;;;5073393;28;20455;-71
2023/04/26 08:58:10;;;;;;;64.10;6.83;;;;;;;;;;5073410;28;20802;-71
2023/04/26 09:00:37;;;;;;;65.73;7.00;;;;;;;;;;5072983;28;20496;-71
2023/04/26 09:03:04;;;;;;;62.37;6.40;;;;;;;;;;5073486;28;20443;-71
2023/04/26 09:05:31;;;;;;;64.63;7.23;;;;;;;;;;5073082;28;20447;-71
2023/04/26 09:08:02;;;;;;;62.70;6.83;;;;;;;;;;5073539;28;20443;-71
2023/04/26 09:10:31;;;;;;;63.87;6.47;;;;;;;;;;5072567;28;20494;-70
2023/04/26 09:12:58;;;;;;;67.00;6.93;;;;;;;;;;5073193;28;20447;-71
2023/04/26 09:15:26;;;;;;;64.10;6.97;;;;;;;;;;5073189;28;20451;-70
2023/04/26 09:17:53;;;;;;;61.97;6.33;;;;;;;;;;5072992;28;20888;-71
2023/04/26 09:20:21;;;;;;;64.60;7.47;;;;;;;;;;5072927;28;20463;-71
2023/04/26 09:22:49;;;;;;;61.77;6.57;;;;;;;;;;5073313;28;20946;-71
2023/04/26 09:25:18;;;;;;;61.80;6.50;;;;;;;;;;5073445;28;20559;-71
2023/04/26 09:27:46;;;;;;;66.03;6.97;;;;;;;;;;5073015;28;20529;-70
2023/04/26 09:30:14;;;;;;;65.17;7.77;;;;;;;;;;5071977;28;21018;-71
2023/04/26 09:32:59;;;;;;;63.53;7.03;;;;;;;;;;5072628;28;20539;-71
2023/04/26 09:35:28;;;;;;;61.40;6.10;;;;;;;;;;5072604;28;20908;-71
2023/04/26 09:37:57;;;;;;;68.37;6.20;;;;;;;;;;5072562;28;20446;-68
2023/04/26 09:40:26;;;;;;;61.47;5.43;;;;;;;;;;5071983;28;20459;-70
2023/04/26 09:43:00;;;;;;;64.60;6.40;;;;;;;;;;5072468;28;20443;-71
2023/04/26 09:45:28;;;;;;;62.10;6.50;;;;;;;;;;5072596;28;20810;-71
2023/04/26 09:47:55;;;;;;;61.90;5.93;;;;;;;;;;5072388;28;20448;-71
2023/04/26 09:50:29;;;;;;;61.20;5.47;;;;;;;;;;5071908;28;20483;-72
2023/04/26 09:52:56;;;;;;;61.20;6.00;;;;;;;;;;5072578;28;20451;-71
2023/04/26 09:55:28;;;;;;;62.03;5.57;;;;;;;;;;5072253;28;20447;-71
2023/04/26 09:57:57;;;;;;;68.47;6.00;;;;;;;;;;5072614;28;20818;-71
2023/04/26 10:00:25;;;;;;;59.60;6.03;;;;;;;;;;5071846;28;20459;-71
2023/04/26 10:02:53;;;;;;;64.67;6.20;;;;;;;;;;5072447;28;20454;-71
2023/04/26 10:05:20;;;;;;;62.87;5.80;;;;;;;;;;5072159;28;20952;-69
2023/04/26 10:07:48;;;;;;;62.80;6.23;;;;;;;;;;5072646;28;20454;-69
2023/04/26 10:10:15;;;;;;;60.50;5.90;;;;;;;;;;5071376;28;20483;-69
2023/04/26 10:12:44;;;;;;;62.70;5.77;;;;;;;;;;5071879;28;20455;-69
2023/04/26 10:15:12;;;;;;;58.83;5.17;;;;;;;;;;5071943;28;20483;-69
2023/04/26 10:17:39;;;;;;;64.97;5.80;;;;;;;;;;5072256;28;20454;-69
2023/04/26 10:20:09;;;;;;;60.87;5.50;;;;;;;;;;5071471;28;20469;-69
2023/04/26 10:22:37;;;;;;;60.80;5.77;;;;;;;;;;5071664;28;20932;-69
2023/04/26 10:25:05;;;;;;;61.43;5.10;;;;;;;;;;5071540;28;20462;-69
2023/04/26 10:27:50;;;;;;;61.67;5.70;;;;;;;;;;5072012;28;20451;-69
2023/04/26 10:30:18;;;;;;;61.30;6.90;;;;;;;;;;5071287;28;20580;-69
2023/04/26 10:33:03;;;;;;;66.67;7.40;;;;;;;;;;5071850;28;20454;-70
2023/04/26 10:35:31;;;;;;;61.17;6.30;;;;;;;;;;5071998;28;20451;-70
2023/04/26 10:38:12;;;;;;;61.87;6.00;;;;;;;;;;5071796;28;20451;-70
2023/04/26 10:40:40;;;;;;;63.57;6.70;;;;;;;;;;5069894;28;20490;-70
2023/04/26 10:43:29;;;;;;;66.33;6.57;;;;;;;;;;5075770;28;20800;-69
2023/04/26 10:45:56;;;;;;;64.53;5.90;;;;;;;;;;5075559;28;21009;-70
2023/04/26 10:48:24;;;;;;;63.40;5.27;;;;;;;;;;5075499;28;20473;-71
2023/04/26 10:51:11;;;;;;;59.77;5.23;;;;;;;;;;5075264;28;20487;-71
2023/04/26 10:53:53;;;;;;;59.27;4.63;;;;;;;;;;5075449;28;20466;-71
2023/04/26 10:56:35;;;;;;;59.60;4.83;;;;;;;;;;5075420;28;20453;-71
2023/04/26 10:59:10;;;;;;;60.00;4.83;;;;;;;;;;5074965;28;20472;-71
2023/04/26 11:01:38;;;;;;;61.07;4.90;;;;;;;;;;5075440;28;20838;-70
2023/04/26 11:04:07;;;;;;;62.13;6.80;;;;;;;;;;5075246;28;20443;-71
2023/04/26 11:06:48;;;;;;;61.13;5.83;;;;;;;;;;5075168;28;20454;-70
2023/04/26 11:09:35;;;;;;;62.27;4.83;;;;;;;;;;5075045;28;20521;-70
2023/04/26 11:12:04;;;;;;;60.80;4.80;;;;;;;;;;5075269;28;20509;-70
2023/04/26 11:14:33;;;;;;;64.20;5.37;;;;;;;;;;5075280;28;20477;-71
2023/04/26 11:17:03;;;;;;;62.97;5.40;;;;;;;;;;5075394;28;20455;-71
2023/04/26 11:19:30;;;;;;;59.97;4.70;;;;;;;;;;5075181;28;20967;-71
2023/04/26 11:21:57;;;;;;;60.90;5.07;;;;;;;;;;5074983;28;20935;-70
2023/04/26 11:24:28;;;;;;;64.60;5.30;;;;;;;;;;5075012;28;20459;-70
2023/04/26 11:26:55;;;;;;;59.77;5.20;;;;;;;;;;5074946;28;20474;-70
2023/04/26 11:29:22;;;;;;;60.97;5.10;;;;;;;;;;5074342;28;20471;-71
2023/04/26 11:31:54;;;;;;;61.20;5.30;;;;;;;;;;5074931;28;20482;-70
2023/04/26 11:34:23;;;;;;;62.73;5.17;;;;;;;;;;5074859;28;20505;-70
2023/04/26 11:36:51;;;;;;;59.57;4.70;;;;;;;;;;5074715;28;21001;-70
2023/04/26 11:39:20;;;;;;;63.63;4.87;;;;;;;;;;5074273;28;20466;-70
2023/04/26 11:41:47;;;;;;;61.13;5.03;;;;;;;;;;5074517;28;20496;-70
2023/04/26 11:44:18;;;;;;;61.13;4.93;;;;;;;;;;5074943;28;20470;-71
2023/04/26 11:46:46;;;;;;;60.70;4.87;;;;;;;;;;5074974;28;20561;-71
2023/04/26 11:49:15;;;;;;;64.40;5.90;;;;;;;;;;5074223;28;20463;-71
2023/04/26 11:51:42;;;;;;;59.70;4.70;;;;;;;;;;5074302;28;21029;-70
2023/04/26 11:54:09;;;;;;;60.77;4.80;;;;;;;;;;5073497;28;20455;-69
2023/04/26 11:56:38;;;;;;;58.90;4.37;;;;;;;;;;5074501;28;20454;-70
2023/04/26 11:59:05;;;;;;;61.40;4.20;;;;;;;;;;5074159;28;20890;-71
2023/04/26 12:01:32;;;;;;;60.17;4.40;;;;;;;;;;5074363;28;20439;-71
2023/04/26 12:04:00;;;;;;;59.27;4.10;;;;;;;;;;5074254;28;20497;-69
2023/04/26 12:06:32;;;;;;;60.27;4.10;;;;;;;;;;5074043;28;20972;-71
2023/04/26 12:09:01;;;;;;;59.77;4.63;;;;;;;;;;5073740;28;20467;-71
2023/04/26 12:11:29;;;;;;;59.87;4.30;;;;;;;;;;5074099;28;20515;-71
2023/04/26 12:14:00;;;;;;;60.93;4.60;;;;;;;;;;5074174;28;20450;-68
2023/04/26 12:16:27;;;;;;;60.40;4.40;;;;;;;;;;5074024;28;20447;-72
2023/04/26 12:18:55;;;;;;;60.33;4.43;;;;;;;;;;5073622;28;20558;-71
2023/04/26 12:21:23;;;;;;;59.10;4.00;;;;;;;;;;5073694;28;20443;-71
2023/04/26 12:23:51;;;;;;;63.10;4.87;;;;;;;;;;5073879;28;20471;-70
2023/04/26 12:26:19;;;;;;;60.17;4.20;;;;;;;;;;5073915;28;20877;-71
2023/04/26 12:28:46;;;;;;;60.00;4.30;;;;;;;;;;5073380;28;20443;-72
2023/04/26 12:31:13;;;;;;;59.90;4.80;;;;;;;;;;5073720;28;20486;-71
2023/04/26 12:33:40;;;;;;;61.67;4.30;;;;;;;;;;5073623;28;20449;-72
2023/04/26 12:36:11;;;;;;;60.70;4.50;;;;;;;;;;5073636;28;20793;-70
2023/04/26 12:38:38;;;;;;;59.07;4.40;;;;;;;;;;5073344;28;20862;-70
2023/04/26 12:41:06;;;;;;;61.30;4.97;;;;;;;;;;5073471;28;20448;-70
2023/04/26 12:43:33;;;;;;;59.80;4.93;;;;;;;;;;5073377;28;20455;-70
2023/04/26 12:46:01;;;;;;;59.30;4.80;;;;;;;;;;5073395;28;20827;-72
2023/04/26 12:48:28;;;;;;;62.30;5.10;;;;;;;;;;5073054;28;20454;-70
2023/04/26 12:50:55;;;;;;;59.63;4.30;;;;;;;;;;5072905;28;20536;-69
2023/04/26 12:53:22;;;;;;;65.07;5.33;;;;;;;;;;5073373;28;20505;-69
2023/04/26 12:55:49;;;;;;;59.13;4.93;;;;;;;;;;5073408;28;20855;-69
2023/04/26 12:58:18;;;;;;;62.43;4.80;;;;;;;;;;5073033;28;20455;-72
2023/04/26 13:00:45;;;;;;;63.87;5.60;;;;;;;;;;5072757;28;20479;-72
2023/04/26 13:03:13;;;;;;;60.10;4.90;;;;;;;;;;5073282;28;20447;-70
2023/04/26 13:05:40;;;;;;;61.40;5.07;;;;;;;;;;5071932;28;20959;-70
2023/04/26 13:08:07;;;;;;;60.27;4.50;;;;;;;;;;5072977;28;20478;-71
2023/04/26 13:10:34;;;;;;;61.27;5.10;;;;;;;;;;5072576;28;20831;-72
2023/04/26 13:13:01;;;;;;;59.83;5.10;;;;;;;;;;5072761;28;20443;-71
2023/04/26 13:15:30;;;;;;;58.83;4.30;;;;;;;;;;5072654;28;20530;-71
2023/04/26 13:17:57;;;;;;;60.83;4.70;;;;;;;;;;5073026;28;20817;-71
2023/04/26 13:20:24;;;;;;;60.10;4.77;;;;;;;;;;5072579;28;20877;-70
2023/04/26 13:22:51;;;;;;;62.70;5.03;;;;;;;;;;5072637;28;20505;-71
2023/04/26 13:25:18;;;;;;;61.03;4.90;;;;;;;;;;5072448;28;20459;-70
2023/04/26 13:27:45;;;;;;;58.93;4.30;;;;;;;;;;5072616;28;20455;-71
2023/04/26 13:30:13;;;;;;;59.30;4.80;;;;;;;;;;5072428;28;20487;-71
2023/04/26 13:32:42;;;;;;;62.60;5.80;;;;;;;;;;5072461;28;20566;-72
2023/04/26 13:35:10;;;;;;;59.90;4.83;;;;;;;;;;5072616;28;20453;-71
2023/04/26 13:37:37;;;;;;;59.50;4.83;;;;;;;;;;5072453;28;20543;-71
2023/04/26 13:40:05;;;;;;;61.03;5.27;;;;;;;;;;5071999;28;20843;-70
2023/04/26 13:42:32;;;;;;;61.07;5.60;;;;;;;;;;5072166;28;20447;-70
2023/04/26 13:45:00;;;;;;;60.27;5.10;;;;;;;;;;5072536;28;20469;-70
2023/04/26 13:47:28;;;;;;;59.93;5.70;;;;;;;;;;5072505;28;20482;-70
2023/04/26 13:49:56;;;;;;;60.07;5.40;;;;;;;;;;5071919;28;20467;-70
2023/04/26 13:52:23;;;;;;;61.10;5.00;;;;;;;;;;5072136;28;20515;-71
2023/04/26 13:54:50;;;;;;;59.40;4.70;;;;;;;;;;5072046;28;20451;-71
2023/04/26 13:57:18;;;;;;;59.80;4.70;;;;;;;;;;5072141;28;20959;-71
2023/04/26 13:59:45;;;;;;;61.37;4.97;;;;;;;;;;5071801;28;20863;-71
2023/04/26 14:02:12;;;;;;;59.70;4.87;;;;;;;;;;5072159;28;20517;-71
2023/04/26 14:04:40;;;;;;;62.23;4.70;;;;;;;;;;5072018;28;20455;-71
2023/04/26 14:07:10;;;;;;;60.80;5.03;;;;;;;;;;5071886;28;20448;-70
2023/04/26 14:09:37;;;;;;;61.20;5.10;;;;;;;;;;5071762;28;20887;-70
2023/04/26 14:12:04;;;;;;;60.50;5.17;;;;;;;;;;5072084;28;20483;-71
2023/04/26 14:14:31;;;;;;;61.67;5.57;;;;;;;;;;5071801;28;20547;-70
2023/04/26 14:16:58;;;;;;;64.30;6.07;;;;;;;;;;5071626;28;20455;-70
2023/04/26 14:19:25;;;;;;;60.63;5.80;;;;;;;;;;5071727;28;20494;-70
2023/04/26 14:21:53;;;;;;;63.40;4.80;;;;;;;;;;5071778;28;20443;-70
2023/04/26 14:24:21;;;;;;;60.70;4.83;;;;;;;;;;5071412;28;20494;-70
2023/04/26 14:26:49;;;;;;;60.20;5.43;;;;;;;;;;5071760;28;20530;-71
2023/04/26 14:29:16;;;;;;;61.13;4.63;;;;;;;;;;5071675;28;20471;-70